createdAt,value
2017-05-06T00:01:40.363Z,87.20
2017-05-06T00:04:08.215Z,87.20
2017-05-06T00:06:36.070Z,87.30
2017-05-06T00:09:04.895Z,87.40
2017-05-06T00:11:32.354Z,87.40
2017-05-06T00:14:00.205Z,87.30
2017-05-06T00:16:28.488Z,87.40
2017-05-06T00:18:56.339Z,87.50
2017-05-06T00:21:23.795Z,87.50
2017-05-06T00:23:51.782Z,87.40
2017-05-06T00:26:19.631Z,87.40
2017-05-06T00:28:47.087Z,87.60
2017-05-06T00:31:15.082Z,87.40
2017-05-06T00:33:42.551Z,87.60
2017-05-06T00:36:10.399Z,87.60
2017-05-06T00:38:38.371Z,87.60
2017-05-06T00:41:06.223Z,87.60
2017-05-06T00:43:33.683Z,87.60
2017-05-06T00:46:01.660Z,87.60
2017-05-06T00:48:29.518Z,87.60
2017-05-06T00:50:56.971Z,87.60
2017-05-06T00:53:24.442Z,87.70
2017-05-06T00:55:52.296Z,87.40
2017-05-06T00:58:20.147Z,87.50
2017-05-06T01:00:48.278Z,87.50
2017-05-06T01:03:16.131Z,87.50
2017-05-06T01:05:43.986Z,87.50
2017-05-06T01:08:11.680Z,87.50
2017-05-06T01:10:39.533Z,87.50
2017-05-06T01:13:07.387Z,87.60
2017-05-06T01:15:35.130Z,87.60
2017-05-06T01:18:02.980Z,87.60
2017-05-06T01:20:30.439Z,87.60
2017-05-06T01:22:58.732Z,87.50
2017-05-06T01:25:26.579Z,87.60
2017-05-06T01:27:54.035Z,87.60
2017-05-06T01:30:21.507Z,87.70
2017-05-06T01:32:48.975Z,87.60
2017-05-06T01:35:16.854Z,87.60
2017-05-06T01:37:44.705Z,87.70
2017-05-06T01:40:12.569Z,87.60
2017-05-06T01:42:40.431Z,87.60
2017-05-06T01:45:08.305Z,87.60
2017-05-06T01:47:35.780Z,87.60
2017-05-06T01:50:03.260Z,87.70
2017-05-06T01:52:30.721Z,87.70
2017-05-06T01:54:58.962Z,87.70
2017-05-06T01:57:26.815Z,87.60
2017-05-06T01:59:54.688Z,87.60
2017-05-06T02:02:22.539Z,87.80
2017-05-06T02:04:50.406Z,87.70
2017-05-06T02:07:18.259Z,87.60
2017-05-06T02:09:46.109Z,87.40
2017-05-06T02:12:13.574Z,87.40
2017-05-06T02:14:41.052Z,87.70
2017-05-06T02:17:08.507Z,87.70
2017-05-06T02:19:35.987Z,87.80
2017-05-06T02:22:03.848Z,87.60
2017-05-06T02:24:31.301Z,87.60
2017-05-06T02:26:58.788Z,87.80
2017-05-06T02:29:26.653Z,87.80
2017-05-06T02:31:54.515Z,87.80
2017-05-06T02:34:22.001Z,87.80
2017-05-06T02:36:49.473Z,87.80
2017-05-06T02:39:16.948Z,87.80
2017-05-06T02:41:44.804Z,88.00
2017-05-06T02:44:12.279Z,87.90
2017-05-06T02:46:40.128Z,88.10
2017-05-06T02:49:07.999Z,88.10
2017-05-06T02:51:35.859Z,88.10
2017-05-06T02:54:03.355Z,88.10
2017-05-06T02:56:31.226Z,88.00
2017-05-06T02:58:58.720Z,88.00
2017-05-06T03:01:26.188Z,88.00
2017-05-06T03:03:53.672Z,88.30
2017-05-06T03:06:21.544Z,88.20
2017-05-06T03:08:49.427Z,88.30
2017-05-06T03:11:17.289Z,88.40
2017-05-06T03:13:45.176Z,88.40
2017-05-06T03:16:13.489Z,88.40
2017-05-06T03:18:40.984Z,88.40
2017-05-06T03:21:08.848Z,88.50
2017-05-06T03:23:36.342Z,88.50
2017-05-06T03:26:03.812Z,88.40
2017-05-06T03:28:31.291Z,88.40
2017-05-06T03:30:59.161Z,88.50
2017-05-06T03:33:26.656Z,88.60
2017-05-06T03:35:54.520Z,88.50
2017-05-06T03:38:22.397Z,88.50
2017-05-06T03:40:49.865Z,88.50
2017-05-06T03:43:17.747Z,88.60
2017-05-06T03:45:45.608Z,88.50
2017-05-06T03:48:13.488Z,88.70
2017-05-06T03:50:40.972Z,88.70
2017-05-06T03:53:08.441Z,88.70
2017-05-06T03:55:36.299Z,88.40
2017-05-06T03:58:04.168Z,88.40
2017-05-06T04:00:32.022Z,88.60
2017-05-06T04:02:59.888Z,88.60
2017-05-06T04:05:27.743Z,88.60
2017-05-06T04:07:55.612Z,88.70
2017-05-06T04:10:23.070Z,88.70
2017-05-06T04:12:50.544Z,88.50
2017-05-06T04:15:18.003Z,88.50
2017-05-06T04:17:45.881Z,88.50
2017-05-06T04:20:13.730Z,88.50
2017-05-06T04:22:41.203Z,88.50
2017-05-06T04:25:09.054Z,88.50
2017-05-06T04:27:36.931Z,88.70
2017-05-06T04:30:04.787Z,88.70
2017-05-06T04:32:32.673Z,88.60
2017-05-06T04:35:00.522Z,88.60
2017-05-06T04:37:28.395Z,88.50
2017-05-06T04:39:57.068Z,88.30
2017-05-06T04:42:24.951Z,88.30
2017-05-06T04:44:52.807Z,88.30
2017-05-06T04:47:20.283Z,88.30
2017-05-06T04:49:48.231Z,88.20
2017-05-06T04:52:16.106Z,88.20
2017-05-06T04:54:43.975Z,88.10
2017-05-06T04:57:11.890Z,88.10
2017-05-06T04:59:39.744Z,88.00
2017-05-06T05:02:07.624Z,87.90
2017-05-06T05:04:35.861Z,87.90
2017-05-06T05:07:03.762Z,87.90
2017-05-06T05:09:31.988Z,87.70
2017-05-06T05:11:59.867Z,87.60
2017-05-06T05:14:27.727Z,87.60
2017-05-06T05:16:56.568Z,87.60
2017-05-06T05:19:24.431Z,87.30
2017-05-06T05:21:52.317Z,87.30
2017-05-06T05:24:20.183Z,87.20
2017-05-06T05:26:48.061Z,87.10
2017-05-06T05:29:15.519Z,87.10
2017-05-06T05:31:43.000Z,87.00
2017-05-06T05:34:10.865Z,86.40
2017-05-06T05:36:38.739Z,86.30
2017-05-06T05:39:06.594Z,86.10
2017-05-06T05:41:34.468Z,86.00
2017-05-06T05:44:02.332Z,86.10
2017-05-06T05:46:30.212Z,85.90
2017-05-06T05:48:58.069Z,85.90
2017-05-06T05:51:25.942Z,85.60
2017-05-06T05:53:53.797Z,85.50
2017-05-06T05:56:21.675Z,85.40
2017-05-06T05:58:49.137Z,85.50
2017-05-06T06:01:17.010Z,85.20
2017-05-06T06:03:44.871Z,85.10
2017-05-06T06:06:12.338Z,85.10
2017-05-06T06:08:40.219Z,84.80
2017-05-06T06:11:08.106Z,84.70
2017-05-06T06:13:35.570Z,84.70
2017-05-06T06:16:03.449Z,84.50
2017-05-06T06:18:30.919Z,84.50
2017-05-06T06:20:58.799Z,84.00
2017-05-06T06:23:26.263Z,84.00
2017-05-06T06:25:56.772Z,84.20
2017-05-06T06:28:24.650Z,84.00
2017-05-06T06:30:52.528Z,83.70
2017-05-06T06:33:20.387Z,83.60
2017-05-06T06:35:48.271Z,83.30
2017-05-06T06:38:16.138Z,83.30
2017-05-06T06:40:44.007Z,83.00
2017-05-06T06:43:12.257Z,83.40
2017-05-06T06:45:40.127Z,83.60
2017-05-06T06:48:08.003Z,83.30
2017-05-06T06:50:35.869Z,82.90
2017-05-06T06:53:03.747Z,82.80
2017-05-06T06:55:32.064Z,82.80
2017-05-06T06:57:59.956Z,82.40
2017-05-06T07:00:27.836Z,82.10
2017-05-06T07:02:55.726Z,82.20
2017-05-06T07:05:23.962Z,82.20
2017-05-06T07:07:51.867Z,81.60
2017-05-06T07:10:20.101Z,81.40
2017-05-06T07:12:47.976Z,81.20
2017-05-06T07:15:15.873Z,81.30
2017-05-06T07:17:43.746Z,81.20
2017-05-06T07:20:11.211Z,81.20
2017-05-06T07:22:38.699Z,81.00
2017-05-06T07:25:06.562Z,80.40
2017-05-06T07:27:34.047Z,80.40
2017-05-06T07:30:01.911Z,80.40
2017-05-06T07:32:29.395Z,80.40
2017-05-06T07:34:57.262Z,80.10
2017-05-06T07:37:24.948Z,80.10
2017-05-06T07:39:52.810Z,80.10
2017-05-06T07:42:20.690Z,79.60
2017-05-06T07:44:48.861Z,79.70
2017-05-06T07:47:16.740Z,79.70
2017-05-06T07:49:44.604Z,79.30
2017-05-06T07:52:12.502Z,79.30
2017-05-06T07:54:40.050Z,79.40
2017-05-06T07:57:07.935Z,79.10
2017-05-06T07:59:35.798Z,79.30
2017-05-06T08:02:03.681Z,78.90
2017-05-06T08:04:31.543Z,78.90
2017-05-06T08:06:59.430Z,78.50
2017-05-06T08:09:27.663Z,78.60
2017-05-06T08:11:55.551Z,78.80
2017-05-06T08:14:23.414Z,78.60
2017-05-06T08:16:51.285Z,78.30
2017-05-06T08:19:19.183Z,78.20
2017-05-06T08:21:46.668Z,78.20
2017-05-06T08:24:14.562Z,78.10
2017-05-06T08:26:42.438Z,78.00
2017-05-06T08:29:10.302Z,77.50
2017-05-06T08:31:38.517Z,77.60
2017-05-06T08:34:06.378Z,77.30
2017-05-06T08:36:34.042Z,77.30
2017-05-06T08:39:05.760Z,77.60
2017-05-06T08:41:33.283Z,77.20
2017-05-06T08:44:00.748Z,76.80
2017-05-06T08:46:28.630Z,77.40
2017-05-06T08:48:56.496Z,76.10
2017-05-06T08:51:24.375Z,76.50
2017-05-06T08:53:52.248Z,75.60
2017-05-06T08:56:20.159Z,76.00
2017-05-06T08:58:48.229Z,75.60
2017-05-06T09:01:16.111Z,74.90
2017-05-06T09:03:43.792Z,74.90
2017-05-06T09:06:11.807Z,75.00
2017-05-06T09:08:39.676Z,74.90
2017-05-06T09:11:07.542Z,74.70
2017-05-06T09:13:35.407Z,73.90
2017-05-06T09:16:03.290Z,73.90
2017-05-06T09:18:31.155Z,73.70
2017-05-06T09:20:59.021Z,73.30
2017-05-06T09:23:26.487Z,73.30
2017-05-06T09:25:53.971Z,73.40
2017-05-06T09:28:21.839Z,73.30
2017-05-06T09:30:49.707Z,73.10
2017-05-06T09:33:17.572Z,72.80
2017-05-06T09:35:45.483Z,72.30
2017-05-06T09:38:13.347Z,72.80
2017-05-06T09:40:40.820Z,72.90
2017-05-06T09:43:08.287Z,72.40
2017-05-06T09:45:35.775Z,72.10
2017-05-06T09:48:03.640Z,71.80
2017-05-06T09:50:31.522Z,71.40
2017-05-06T09:52:59.378Z,71.20
2017-05-06T09:55:27.255Z,71.60
2017-05-06T09:57:54.720Z,71.60
2017-05-06T10:00:22.600Z,70.80
2017-05-06T10:02:50.843Z,70.60
2017-05-06T10:05:18.719Z,70.00
2017-05-06T10:07:46.578Z,70.50
2017-05-06T10:10:14.459Z,70.30
2017-05-06T10:12:42.391Z,70.10
2017-05-06T10:15:10.262Z,69.50
2017-05-06T10:17:38.134Z,69.80
2017-05-06T10:20:06.015Z,69.60
2017-05-06T10:22:33.883Z,69.60
2017-05-06T10:25:01.759Z,69.30
2017-05-06T10:27:30.043Z,69.00
2017-05-06T10:29:57.985Z,69.80
2017-05-06T10:32:25.855Z,69.80
2017-05-06T10:34:53.338Z,69.80
2017-05-06T10:37:21.211Z,68.40
2017-05-06T10:39:49.886Z,68.00
2017-05-06T10:42:18.123Z,68.00
2017-05-06T10:44:45.983Z,67.80
2017-05-06T10:47:13.863Z,68.10
2017-05-06T10:49:41.747Z,67.90
2017-05-06T10:52:09.603Z,67.60
2017-05-06T10:54:37.487Z,67.70
2017-05-06T10:57:05.354Z,67.20
2017-05-06T10:59:33.231Z,66.70
2017-05-06T11:02:00.699Z,66.70
2017-05-06T11:04:28.190Z,67.00
2017-05-06T11:06:55.663Z,66.80
2017-05-06T11:09:23.544Z,66.70
2017-05-06T11:11:51.012Z,66.70
2017-05-06T11:14:18.900Z,67.00
2017-05-06T11:16:46.366Z,67.00
2017-05-06T11:19:14.231Z,66.40
2017-05-06T11:21:42.114Z,66.10
2017-05-06T11:24:09.583Z,66.10
2017-05-06T11:26:37.495Z,65.60
2017-05-06T11:29:05.676Z,65.30
2017-05-06T11:31:33.855Z,65.50
2017-05-06T11:34:02.471Z,65.60
2017-05-06T11:36:30.389Z,65.70
2017-05-06T11:38:58.416Z,64.40
2017-05-06T11:41:26.615Z,64.30
2017-05-06T11:43:54.767Z,64.80
2017-05-06T11:46:22.914Z,63.90
2017-05-06T11:48:50.423Z,63.90
2017-05-06T11:51:18.700Z,63.60
2017-05-06T11:53:46.883Z,63.20
2017-05-06T11:56:14.783Z,63.50
2017-05-06T11:58:42.651Z,64.40
2017-05-06T12:01:10.151Z,64.50
2017-05-06T12:03:38.035Z,63.60
2017-05-06T12:06:05.924Z,64.20
2017-05-06T12:08:33.399Z,64.20
2017-05-06T12:11:01.223Z,63.90
2017-05-06T12:13:30.326Z,63.70
2017-05-06T12:15:58.540Z,64.20
2017-05-06T12:18:26.407Z,64.20
2017-05-06T12:20:54.663Z,63.90
2017-05-06T12:23:22.538Z,64.20
2017-05-06T12:25:50.047Z,64.20
2017-05-06T12:28:20.153Z,64.10
2017-05-06T12:30:48.043Z,64.50
2017-05-06T12:33:15.918Z,64.60
2017-05-06T12:35:44.188Z,64.30
2017-05-06T12:38:12.064Z,63.00
2017-05-06T12:40:40.319Z,63.10
2017-05-06T12:43:08.221Z,63.00
2017-05-06T12:45:35.716Z,63.00
2017-05-06T12:48:03.581Z,61.70
2017-05-06T12:50:31.463Z,62.10
2017-05-06T12:52:59.332Z,62.00
2017-05-06T12:55:27.203Z,62.20
2017-05-06T12:57:55.064Z,62.20
2017-05-06T13:00:22.936Z,62.30
2017-05-06T13:02:50.808Z,62.40
2017-05-06T13:05:18.690Z,62.50
2017-05-06T13:07:46.563Z,62.20
2017-05-06T13:10:14.436Z,62.50
2017-05-06T13:12:42.303Z,62.20
2017-05-06T13:15:10.556Z,62.10
2017-05-06T13:17:38.044Z,62.10
2017-05-06T13:20:05.913Z,62.10
2017-05-06T13:22:33.374Z,62.00
2017-05-06T13:25:00.856Z,62.60
2017-05-06T13:27:28.320Z,62.10
2017-05-06T13:29:56.190Z,61.80
2017-05-06T13:32:24.046Z,62.00
2017-05-06T13:34:51.918Z,61.60
2017-05-06T13:37:19.783Z,61.80
2017-05-06T13:39:47.655Z,61.60
2017-05-06T13:42:15.301Z,61.60
2017-05-06T13:44:43.239Z,61.20
2017-05-06T13:47:10.926Z,61.20
2017-05-06T13:49:38.799Z,61.20
2017-05-06T13:52:06.268Z,61.20
2017-05-06T13:54:34.126Z,61.40
2017-05-06T13:57:02.869Z,61.20
2017-05-06T13:59:30.346Z,61.20
2017-05-06T14:01:58.198Z,61.20
2017-05-06T14:04:26.079Z,61.90
2017-05-06T14:06:53.935Z,61.10
2017-05-06T14:09:21.810Z,62.20
2017-05-06T14:11:49.270Z,62.20
2017-05-06T14:14:16.743Z,61.50
2017-05-06T14:16:44.662Z,63.40
2017-05-06T14:19:12.540Z,62.10
2017-05-06T14:21:40.006Z,62.10
2017-05-06T14:24:07.492Z,60.00
2017-05-06T14:26:35.354Z,61.20
2017-05-06T14:29:03.235Z,60.00
2017-05-06T14:31:31.097Z,60.50
2017-05-06T14:33:58.970Z,62.30
2017-05-06T14:36:26.438Z,62.30
2017-05-06T14:38:53.911Z,62.90
2017-05-06T14:41:21.762Z,61.90
2017-05-06T14:43:49.669Z,61.10
2017-05-06T14:46:17.538Z,61.90
2017-05-06T14:48:45.407Z,61.50
2017-05-06T14:51:12.875Z,61.50
2017-05-06T14:53:40.348Z,65.10
2017-05-06T14:56:07.821Z,64.00
2017-05-06T14:58:35.694Z,62.10
2017-05-06T15:01:03.559Z,61.40
2017-05-06T15:03:31.837Z,61.10
2017-05-06T15:05:59.707Z,62.10
2017-05-06T15:08:27.166Z,62.10
2017-05-06T15:10:55.037Z,60.90
2017-05-06T15:13:22.894Z,61.00
2017-05-06T15:15:50.774Z,61.70
2017-05-06T15:18:18.243Z,61.70
2017-05-06T15:20:46.477Z,59.10
2017-05-06T15:23:14.353Z,59.00
2017-05-06T15:25:42.219Z,59.50
2017-05-06T15:28:10.074Z,59.60
2017-05-06T15:30:37.950Z,59.70
2017-05-06T15:33:05.803Z,59.60
2017-05-06T15:35:33.675Z,60.40
2017-05-06T15:38:01.535Z,60.10
2017-05-06T15:40:29.408Z,60.70
2017-05-06T15:42:57.267Z,62.80
2017-05-06T15:45:24.748Z,62.80
2017-05-06T15:47:52.611Z,59.10
2017-05-06T15:50:20.499Z,59.50
2017-05-06T15:52:48.354Z,60.10
2017-05-06T15:55:16.231Z,60.30
2017-05-06T15:57:44.455Z,59.00
2017-05-06T16:00:12.334Z,57.50
2017-05-06T16:02:40.191Z,57.50
2017-05-06T16:05:07.667Z,57.50
2017-05-06T16:07:35.527Z,60.20
2017-05-06T16:10:03.008Z,60.20
2017-05-06T16:12:30.870Z,61.90
2017-05-06T16:14:58.738Z,61.70
2017-05-06T16:17:26.203Z,61.70
2017-05-06T16:19:54.076Z,60.10
2017-05-06T16:22:21.929Z,61.50
2017-05-06T16:24:49.408Z,61.50
2017-05-06T16:27:17.266Z,60.40
2017-05-06T16:29:45.134Z,61.50
2017-05-06T16:32:12.994Z,63.40
2017-05-06T16:34:41.232Z,64.00
2017-05-06T16:37:08.691Z,64.00
2017-05-06T16:39:36.758Z,62.30
2017-05-06T16:42:04.711Z,61.10
2017-05-06T16:44:32.186Z,61.10
2017-05-06T16:47:00.043Z,64.10
2017-05-06T16:49:28.650Z,62.80
2017-05-06T16:51:56.510Z,62.20
2017-05-06T16:54:23.972Z,62.20
2017-05-06T16:56:51.851Z,62.10
2017-05-06T16:59:19.727Z,62.20
2017-05-06T17:01:47.583Z,62.00
2017-05-06T17:04:15.058Z,61.90
2017-05-06T17:06:42.925Z,62.10
2017-05-06T17:09:11.168Z,62.00
2017-05-06T17:11:39.027Z,62.40
2017-05-06T17:14:06.903Z,62.50
2017-05-06T17:16:34.755Z,62.60
2017-05-06T17:19:02.626Z,62.40
2017-05-06T17:21:30.490Z,62.70
2017-05-06T17:23:58.358Z,62.20
2017-05-06T17:26:26.220Z,62.50
2017-05-06T17:28:54.090Z,62.40
2017-05-06T17:31:21.958Z,62.60
2017-05-06T17:33:49.838Z,62.90
2017-05-06T17:36:17.699Z,64.00
2017-05-06T17:38:45.584Z,63.70
2017-05-06T17:41:13.450Z,66.30
2017-05-06T17:43:40.922Z,66.30
2017-05-06T17:46:08.790Z,65.40
2017-05-06T17:48:36.662Z,66.20
2017-05-06T17:51:04.519Z,66.30
2017-05-06T17:53:32.763Z,65.50
2017-05-06T17:56:00.227Z,65.50
2017-05-06T17:58:28.096Z,67.20
2017-05-06T18:00:56.182Z,68.20
2017-05-06T18:03:24.422Z,68.30
2017-05-06T18:05:52.295Z,69.10
2017-05-06T18:08:20.172Z,69.00
2017-05-06T18:10:47.635Z,69.00
2017-05-06T18:13:15.496Z,68.80
2017-05-06T18:15:43.373Z,69.80
2017-05-06T18:18:11.619Z,70.20
2017-05-06T18:20:39.474Z,70.30
2017-05-06T18:23:06.948Z,70.40
2017-05-06T18:25:34.811Z,72.30
2017-05-06T18:28:02.688Z,72.50
2017-05-06T18:30:30.551Z,72.60
2017-05-06T18:32:58.428Z,72.80
2017-05-06T18:35:26.288Z,73.60
2017-05-06T18:37:54.160Z,73.70
2017-05-06T18:40:22.021Z,73.30
2017-05-06T18:42:49.897Z,73.90
2017-05-06T18:45:17.759Z,73.40
2017-05-06T18:47:45.639Z,72.50
2017-05-06T18:50:13.505Z,72.40
2017-05-06T18:52:40.987Z,72.40
2017-05-06T18:55:08.459Z,72.80
2017-05-06T18:57:36.343Z,73.40
2017-05-06T19:00:04.211Z,73.50
2017-05-06T19:02:32.070Z,73.80
2017-05-06T19:04:59.958Z,73.70
2017-05-06T19:07:27.822Z,73.90
2017-05-06T19:09:55.708Z,74.20
2017-05-06T19:12:23.938Z,74.00
2017-05-06T19:14:51.818Z,74.40
2017-05-06T19:17:19.679Z,74.50
2017-05-06T19:19:47.565Z,74.90
2017-05-06T19:22:15.031Z,74.90
2017-05-06T19:24:42.906Z,75.20
2017-05-06T19:27:11.141Z,75.60
2017-05-06T19:29:39.020Z,75.60
2017-05-06T19:32:06.884Z,75.50
2017-05-06T19:34:34.744Z,75.50
2017-05-06T19:37:02.641Z,75.60
2017-05-06T19:39:30.886Z,75.70
2017-05-06T19:41:58.752Z,76.10
2017-05-06T19:44:26.622Z,76.00
2017-05-06T19:46:54.485Z,76.10
2017-05-06T19:49:22.487Z,76.30
2017-05-06T19:51:50.348Z,76.20
2017-05-06T19:54:17.815Z,76.20
2017-05-06T19:56:45.687Z,76.60
2017-05-06T19:59:13.199Z,76.60
2017-05-06T20:01:41.062Z,76.70
2017-05-06T20:04:08.934Z,76.60
2017-05-06T20:06:36.397Z,76.60
2017-05-06T20:09:04.271Z,77.20
2017-05-06T20:11:32.135Z,77.50
2017-05-06T20:14:00.008Z,77.40
2017-05-06T20:16:27.863Z,78.10
2017-05-06T20:18:55.735Z,77.90
2017-05-06T20:21:23.587Z,77.90
2017-05-06T20:23:51.447Z,78.20
2017-05-06T20:26:19.322Z,78.30
2017-05-06T20:28:46.807Z,78.30
2017-05-06T20:31:14.268Z,78.40
2017-05-06T20:33:42.143Z,78.50
2017-05-06T20:36:10.368Z,78.30
2017-05-06T20:38:38.236Z,78.40
2017-05-06T20:41:05.729Z,78.40
2017-05-06T20:43:33.965Z,78.60
2017-05-06T20:46:01.434Z,78.60
2017-05-06T20:48:29.324Z,79.00
2017-05-06T20:50:57.553Z,79.00
2017-05-06T20:53:25.435Z,79.10
2017-05-06T20:55:53.302Z,79.50
2017-05-06T20:58:21.187Z,79.40
2017-05-06T21:00:49.046Z,79.40
2017-05-06T21:03:16.927Z,79.30
2017-05-06T21:05:44.790Z,79.40
2017-05-06T21:08:12.669Z,79.20
2017-05-06T21:10:40.895Z,79.30
2017-05-06T21:13:08.766Z,79.60
2017-05-06T21:15:36.224Z,79.60
2017-05-06T21:18:04.603Z,79.90
2017-05-06T21:20:32.607Z,80.30
2017-05-06T21:23:01.520Z,80.30
2017-05-06T21:25:29.283Z,80.30
2017-05-06T21:27:57.231Z,80.30
2017-05-06T21:30:25.888Z,80.70
2017-05-06T21:32:53.723Z,80.70
2017-05-06T21:35:21.599Z,81.10
2017-05-06T21:37:49.563Z,81.60
2017-05-06T21:40:17.143Z,81.60
2017-05-06T21:42:45.300Z,82.00
2017-05-06T21:45:13.297Z,82.50
2017-05-06T21:47:41.334Z,82.60
2017-05-06T21:50:09.359Z,82.60
2017-05-06T21:52:37.862Z,82.80
2017-05-06T21:55:05.960Z,82.80
2017-05-06T21:57:34.399Z,82.80
2017-05-06T22:00:02.026Z,82.80
2017-05-06T22:02:30.142Z,82.70
2017-05-06T22:04:58.005Z,82.70
2017-05-06T22:07:26.495Z,82.70
2017-05-06T22:09:53.974Z,82.70
2017-05-06T22:12:22.340Z,82.70
2017-05-06T22:14:50.762Z,82.60
2017-05-06T22:17:18.993Z,82.80
2017-05-06T22:19:46.871Z,83.00
2017-05-06T22:22:15.199Z,83.00
2017-05-06T22:24:43.720Z,83.30
2017-05-06T22:27:11.835Z,83.30
2017-05-06T22:29:39.800Z,83.00
2017-05-06T22:32:07.456Z,83.00
2017-05-06T22:34:35.799Z,83.70
2017-05-06T22:37:03.912Z,83.70
2017-05-06T22:39:32.157Z,83.80
2017-05-06T22:42:00.693Z,83.80
2017-05-06T22:44:28.510Z,83.80
2017-05-06T22:46:56.563Z,84.00
2017-05-06T22:49:24.425Z,84.10
2017-05-06T22:51:52.611Z,84.10
2017-05-06T22:54:20.768Z,84.30
2017-05-06T22:56:49.185Z,84.40
2017-05-06T22:59:17.055Z,84.30
2017-05-06T23:01:44.563Z,84.30
2017-05-06T23:04:13.889Z,84.00
2017-05-06T23:06:42.257Z,84.10
2017-05-06T23:09:10.079Z,84.10
2017-05-06T23:11:37.640Z,84.50
2017-05-06T23:14:05.579Z,84.70
2017-05-06T23:16:33.991Z,84.70
2017-05-06T23:19:02.508Z,84.90
2017-05-06T23:21:30.452Z,84.80
2017-05-06T23:23:58.075Z,84.80
2017-05-06T23:26:26.146Z,84.80
2017-05-06T23:28:54.530Z,84.90
2017-05-06T23:31:22.842Z,84.80
2017-05-06T23:33:51.232Z,84.80
2017-05-06T23:36:19.291Z,85.20
2017-05-06T23:38:47.521Z,85.60
2017-05-06T23:41:15.784Z,86.20
2017-05-06T23:43:43.403Z,86.20
2017-05-06T23:46:11.474Z,86.80
2017-05-06T23:48:40.299Z,87.20
2017-05-06T23:51:08.183Z,87.30
2017-05-06T23:53:36.210Z,87.90
2017-05-06T23:56:04.129Z,87.90
2017-05-06T23:58:32.070Z,88.50
